createdAt,value
2023-03-06T00:00:58.621Z,66.43
2023-03-06T00:03:28.973Z,66.59
2023-03-06T00:05:59.391Z,66.45
2023-03-06T00:08:30.213Z,66.89
2023-03-06T00:10:59.991Z,67.32
2023-03-06T00:13:31.286Z,67.00
2023-03-06T00:16:01.565Z,67.02
2023-03-06T00:18:30.634Z,66.66
2023-03-06T00:21:00.517Z,67.20
2023-03-06T00:23:30.265Z,68.14
2023-03-06T00:25:59.674Z,70.57
2023-03-06T00:28:32.560Z,68.98
2023-03-06T00:31:02.821Z,68.00
2023-03-06T00:33:32.728Z,67.59
2023-03-06T00:36:06.707Z,67.90
2023-03-06T00:38:37.871Z,67.62
2023-03-06T00:41:11.539Z,66.98
2023-03-06T00:43:41.236Z,67.67
2023-03-06T00:46:10.620Z,69.66
2023-03-06T00:48:42.221Z,71.22
2023-03-06T00:51:14.028Z,70.84
2023-03-06T00:53:44.082Z,70.71
2023-03-06T00:56:14.352Z,70.49
2023-03-06T00:58:45.583Z,71.03
2023-03-06T01:01:16.528Z,71.40
2023-03-06T01:03:46.089Z,71.01
2023-03-06T01:06:17.474Z,71.30
2023-03-06T01:08:47.887Z,71.30
2023-03-06T01:11:17.287Z,71.73
2023-03-06T01:13:46.864Z,72.34
2023-03-06T01:16:19.597Z,72.14
2023-03-06T01:18:51.615Z,72.28
2023-03-06T01:21:22.349Z,72.45
2023-03-06T01:23:52.147Z,72.35
2023-03-06T01:26:22.070Z,72.20
2023-03-06T01:28:52.216Z,72.60
2023-03-06T01:31:23.094Z,72.60
2023-03-06T01:33:53.341Z,72.56
2023-03-06T01:36:23.101Z,72.54
2023-03-06T01:38:53.184Z,72.60
2023-03-06T01:41:22.804Z,72.30
2023-03-06T01:43:54.808Z,72.43
2023-03-06T01:46:34.304Z,75.65
2023-03-06T01:49:06.392Z,77.56
2023-03-06T01:51:54.054Z,78.75
2023-03-06T01:54:47.301Z,78.93
2023-03-06T01:57:22.978Z,79.54
2023-03-06T02:00:01.623Z,79.62
2023-03-06T02:02:31.744Z,79.22
2023-03-06T02:05:04.950Z,77.60
2023-03-06T02:07:37.415Z,77.35
2023-03-06T02:10:11.350Z,77.34
2023-03-06T02:12:44.836Z,77.57
2023-03-06T02:15:18.600Z,77.38
2023-03-06T02:17:52.316Z,77.43
2023-03-06T02:20:47.027Z,77.01
2023-03-06T02:23:26.285Z,77.72
2023-03-06T02:25:58.144Z,78.32
2023-03-06T02:28:28.288Z,77.52
2023-03-06T02:30:58.731Z,78.50
2023-03-06T02:33:31.262Z,78.54
2023-03-06T02:36:05.280Z,78.35
2023-03-06T02:38:42.319Z,78.40
2023-03-06T02:41:13.672Z,78.15
2023-03-06T02:43:47.421Z,78.15
2023-03-06T02:46:17.435Z,78.05
2023-03-06T02:48:46.991Z,78.32
2023-03-06T02:51:16.842Z,78.18
2023-03-06T02:53:48.705Z,78.16
2023-03-06T02:56:19.713Z,77.95
2023-03-06T02:58:50.478Z,78.05
2023-03-06T03:01:20.582Z,77.88
2023-03-06T03:03:50.901Z,77.32
2023-03-06T03:06:21.712Z,77.15
2023-03-06T03:08:51.577Z,76.79
2023-03-06T03:11:22.997Z,76.59
2023-03-06T03:13:53.959Z,76.59
2023-03-06T03:16:27.052Z,76.60
2023-03-06T03:18:59.102Z,76.39
2023-03-06T03:21:29.513Z,75.54
2023-03-06T03:23:59.402Z,75.17
2023-03-06T03:26:31.496Z,75.15
2023-03-06T03:29:09.357Z,76.06
2023-03-06T03:31:41.228Z,76.62
2023-03-06T03:34:11.886Z,76.13
2023-03-06T03:36:45.056Z,76.57
2023-03-06T03:39:16.441Z,77.62
2023-03-06T03:41:47.006Z,78.18
2023-03-06T03:44:17.551Z,78.78
2023-03-06T03:46:48.237Z,78.81
2023-03-06T03:49:22.704Z,78.66
2023-03-06T03:51:54.000Z,78.82
2023-03-06T03:54:24.797Z,78.47
2023-03-06T03:56:56.244Z,78.56
2023-03-06T03:59:30.453Z,78.18
2023-03-06T04:02:09.202Z,78.18
2023-03-06T04:04:44.145Z,78.04
2023-03-06T04:07:13.341Z,77.67
2023-03-06T04:09:43.346Z,77.34
2023-03-06T04:12:12.841Z,77.07
2023-03-06T04:14:43.160Z,77.07
2023-03-06T04:17:12.354Z,77.04
2023-03-06T04:19:44.606Z,76.68
2023-03-06T04:22:14.685Z,76.41
2023-03-06T04:24:45.517Z,76.82
2023-03-06T04:27:15.306Z,77.01
2023-03-06T04:29:45.412Z,76.95
2023-03-06T04:32:15.830Z,76.77
2023-03-06T04:34:45.439Z,76.74
2023-03-06T04:37:21.415Z,76.52
2023-03-06T04:39:52.836Z,76.57
2023-03-06T04:42:22.958Z,76.44
2023-03-06T04:44:52.485Z,75.76
2023-03-06T04:47:22.390Z,75.44
2023-03-06T04:49:51.604Z,75.71
2023-03-06T04:52:21.314Z,75.81
2023-03-06T04:54:51.468Z,76.00
2023-03-06T04:57:21.128Z,76.31
2023-03-06T04:59:51.148Z,76.53
2023-03-06T05:02:22.012Z,76.75
2023-03-06T05:04:50.881Z,76.92
2023-03-06T05:07:19.942Z,76.38
2023-03-06T05:09:48.954Z,76.27
2023-03-06T05:12:18.812Z,76.30
2023-03-06T05:14:48.778Z,76.19
2023-03-06T05:17:17.868Z,76.25
2023-03-06T05:19:47.904Z,75.84
2023-03-06T05:22:16.890Z,75.67
2023-03-06T05:24:46.487Z,75.99
2023-03-06T05:27:16.934Z,75.50
2023-03-06T05:29:47.371Z,75.10
2023-03-06T05:32:17.310Z,75.64
2023-03-06T05:34:46.169Z,75.30
2023-03-06T05:37:16.177Z,75.33
2023-03-06T05:39:45.366Z,75.27
2023-03-06T05:42:14.256Z,74.92
2023-03-06T05:44:43.453Z,74.60
2023-03-06T05:47:13.258Z,74.43
2023-03-06T05:49:42.557Z,74.10
2023-03-06T05:52:13.430Z,73.41
2023-03-06T05:54:42.393Z,73.11
2023-03-06T05:57:11.921Z,72.08
2023-03-06T05:59:40.988Z,71.54
2023-03-06T06:02:10.233Z,72.04
2023-03-06T06:04:39.172Z,71.52
2023-03-06T06:07:08.678Z,70.71
2023-03-06T06:09:38.494Z,70.24
2023-03-06T06:12:08.320Z,70.33
2023-03-06T06:14:38.224Z,70.07
2023-03-06T06:17:07.946Z,68.49
2023-03-06T06:19:37.537Z,67.23
2023-03-06T06:22:06.527Z,66.65
2023-03-06T06:24:35.425Z,65.09
2023-03-06T06:27:05.530Z,65.65
2023-03-06T06:29:34.832Z,66.52
2023-03-06T06:32:03.575Z,65.74
2023-03-06T06:34:32.929Z,65.09
2023-03-06T06:37:02.230Z,64.98
2023-03-06T06:39:31.323Z,64.20
2023-03-06T06:42:25.915Z,65.10
2023-03-06T06:44:50.247Z,63.77
2023-03-06T06:47:22.909Z,62.81
2023-03-06T06:49:55.322Z,61.91
2023-03-06T06:52:25.149Z,62.85
2023-03-06T06:54:54.450Z,61.13
2023-03-06T06:57:23.451Z,62.42
2023-03-06T06:59:54.160Z,59.74
2023-03-06T07:02:23.696Z,59.42
2023-03-06T07:05:03.724Z,56.03
2023-03-06T07:07:37.683Z,56.76
2023-03-06T07:10:13.192Z,56.89
2023-03-06T07:12:42.197Z,57.38
2023-03-06T07:15:15.688Z,57.83
2023-03-06T07:17:45.286Z,57.81
2023-03-06T07:20:14.807Z,56.98
2023-03-06T07:22:50.875Z,56.10
2023-03-06T07:25:21.627Z,55.96
2023-03-06T07:27:54.708Z,55.91
2023-03-06T07:30:24.793Z,53.82
2023-03-06T07:32:58.502Z,53.66
2023-03-06T07:35:27.499Z,53.91
2023-03-06T07:37:56.908Z,54.40
2023-03-06T07:40:26.697Z,55.43
2023-03-06T07:43:09.131Z,55.99
2023-03-06T07:45:47.175Z,55.85
2023-03-06T07:48:16.027Z,55.98
2023-03-06T07:50:45.519Z,56.07
2023-03-06T07:53:14.105Z,55.05
2023-03-06T07:55:43.316Z,54.30
2023-03-06T07:58:12.823Z,51.65
2023-03-06T08:00:42.026Z,50.70
2023-03-06T08:03:13.149Z,48.96
2023-03-06T08:05:42.571Z,47.75
2023-03-06T08:08:12.689Z,46.05
2023-03-06T08:10:41.755Z,45.74
2023-03-06T08:13:10.454Z,44.64
2023-03-06T08:15:39.349Z,44.52
2023-03-06T08:18:08.432Z,43.84
2023-03-06T08:20:37.944Z,44.74
2023-03-06T08:23:06.931Z,44.52
2023-03-06T08:25:36.230Z,43.26
2023-03-06T08:28:06.492Z,43.84
2023-03-06T08:30:35.861Z,42.70
2023-03-06T08:33:04.647Z,39.50
2023-03-06T08:35:33.346Z,39.84
2023-03-06T08:38:03.134Z,39.55
2023-03-06T08:40:32.226Z,39.47
2023-03-06T08:43:01.226Z,40.14
2023-03-06T08:45:30.281Z,39.73
2023-03-06T08:47:59.115Z,39.75
2023-03-06T08:50:28.210Z,39.04
2023-03-06T08:52:57.183Z,39.30
2023-03-06T08:55:26.078Z,39.85
2023-03-06T08:57:55.303Z,39.51
2023-03-06T09:00:25.001Z,40.29
2023-03-06T09:02:53.876Z,40.96
2023-03-06T09:05:23.282Z,41.46
2023-03-06T09:07:52.137Z,40.19
2023-03-06T09:10:23.982Z,38.83
2023-03-06T09:12:55.049Z,38.32
2023-03-06T09:15:25.089Z,38.40
2023-03-06T09:17:54.728Z,36.81
2023-03-06T09:20:23.750Z,34.81
2023-03-06T09:22:52.577Z,35.14
2023-03-06T09:25:23.598Z,35.46
2023-03-06T09:28:08.636Z,36.23
2023-03-06T09:30:41.146Z,36.69
2023-03-06T09:33:09.964Z,36.28
2023-03-06T09:35:48.372Z,37.70
2023-03-06T09:38:18.699Z,38.27
2023-03-06T09:41:03.258Z,38.64
2023-03-06T09:43:36.754Z,39.68
2023-03-06T09:46:28.954Z,39.41
2023-03-06T09:49:29.419Z,39.97
2023-03-06T09:52:36.523Z,40.80
2023-03-06T09:55:05.796Z,41.25
2023-03-06T09:57:52.923Z,41.48
2023-03-06T10:00:47.615Z,41.60
2023-03-06T10:03:30.099Z,41.15
2023-03-06T10:06:20.935Z,41.75
2023-03-06T10:08:56.366Z,41.65
2023-03-06T10:11:57.518Z,41.15
2023-03-06T10:14:46.625Z,40.51
2023-03-06T10:17:20.988Z,40.59
2023-03-06T10:19:50.310Z,40.10
2023-03-06T10:22:33.367Z,39.10
2023-03-06T10:25:14.171Z,39.07
2023-03-06T10:27:47.769Z,38.68
2023-03-06T10:30:34.476Z,35.20
2023-03-06T10:33:16.098Z,34.68
2023-03-06T10:35:50.133Z,34.32
2023-03-06T10:38:38.041Z,34.61
2023-03-06T10:41:17.269Z,34.25
2023-03-06T10:44:09.657Z,33.51
2023-03-06T10:46:51.734Z,34.93
2023-03-06T10:49:31.030Z,35.83
2023-03-06T10:52:01.586Z,35.92
2023-03-06T10:54:36.726Z,35.59
2023-03-06T10:57:27.209Z,35.66
2023-03-06T11:00:07.656Z,35.99
2023-03-06T11:02:41.343Z,33.93
2023-03-06T11:05:20.395Z,32.44
2023-03-06T11:08:01.405Z,31.04
2023-03-06T11:10:32.123Z,30.70
2023-03-06T11:13:20.779Z,28.73
2023-03-06T11:16:06.287Z,26.97
2023-03-06T11:18:41.488Z,27.82
2023-03-06T11:21:32.129Z,28.86
2023-03-06T11:24:18.898Z,30.74
2023-03-06T11:27:00.158Z,30.98
2023-03-06T11:29:46.269Z,30.59
2023-03-06T11:32:14.855Z,29.25
2023-03-06T11:35:11.893Z,29.50
2023-03-06T11:38:00.060Z,28.83
2023-03-06T11:40:46.548Z,30.12
2023-03-06T11:43:30.275Z,32.34
2023-03-06T11:46:18.050Z,33.23
2023-03-06T11:48:53.864Z,34.56
2023-03-06T11:51:27.152Z,35.44
2023-03-06T11:53:58.811Z,34.40
2023-03-06T11:56:42.066Z,34.70
2023-03-06T11:59:19.939Z,34.88
2023-03-06T12:02:11.492Z,34.60
2023-03-06T12:04:49.363Z,34.83
2023-03-06T12:07:27.369Z,34.96
2023-03-06T12:10:14.703Z,35.47
2023-03-06T12:13:12.561Z,35.60
2023-03-06T12:15:57.247Z,34.87
2023-03-06T12:18:35.941Z,35.46
2023-03-06T12:21:19.589Z,35.73
2023-03-06T12:24:17.341Z,35.64
2023-03-06T12:26:51.662Z,35.27
2023-03-06T12:29:58.341Z,35.25
2023-03-06T12:32:39.506Z,35.37
2023-03-06T12:35:46.413Z,35.97
2023-03-06T12:38:34.531Z,35.71
2023-03-06T12:41:19.094Z,35.73
2023-03-06T12:44:09.588Z,34.37
2023-03-06T12:46:54.663Z,33.99
2023-03-06T12:49:32.903Z,35.01
2023-03-06T12:52:05.137Z,34.95
2023-03-06T12:54:40.067Z,34.15
2023-03-06T12:57:10.410Z,34.37
2023-03-06T12:59:50.351Z,33.85
2023-03-06T13:02:35.639Z,32.22
2023-03-06T13:05:22.741Z,31.48
2023-03-06T13:08:20.305Z,31.49
2023-03-06T13:11:14.491Z,30.95
2023-03-06T13:13:46.182Z,32.10
2023-03-06T13:16:34.886Z,31.58
2023-03-06T13:19:26.129Z,30.64
2023-03-06T13:21:54.799Z,29.76
2023-03-06T13:24:27.330Z,29.34
2023-03-06T13:27:08.216Z,28.97
2023-03-06T13:29:37.547Z,27.71
2023-03-06T13:32:16.704Z,26.58
2023-03-06T13:34:48.780Z,27.31
2023-03-06T13:37:17.936Z,26.92
2023-03-06T13:39:55.641Z,27.05
2023-03-06T13:42:32.114Z,26.31
2023-03-06T13:45:26.099Z,26.16
2023-03-06T13:48:24.479Z,25.75
2023-03-06T13:50:49.845Z,25.10
2023-03-06T13:53:36.988Z,24.99
2023-03-06T13:56:12.324Z,25.40
2023-03-06T13:58:53.127Z,25.37
2023-03-06T14:01:36.956Z,25.62
2023-03-06T14:04:14.740Z,25.53
2023-03-06T14:06:53.025Z,26.31
2023-03-06T14:09:32.989Z,25.73
2023-03-06T14:12:08.146Z,26.03
2023-03-06T14:14:44.082Z,25.93
2023-03-06T14:17:23.938Z,26.83
2023-03-06T14:19:53.539Z,26.36
2023-03-06T14:22:25.196Z,25.82
2023-03-06T14:25:03.192Z,25.14
2023-03-06T14:27:52.022Z,25.52
2023-03-06T14:30:25.390Z,25.80
2023-03-06T14:32:55.687Z,26.21
2023-03-06T14:35:34.838Z,26.63
2023-03-06T14:38:06.758Z,26.87
2023-03-06T14:40:41.292Z,27.60
2023-03-06T14:43:24.130Z,27.73
2023-03-06T14:46:01.302Z,28.11
2023-03-06T14:48:44.725Z,28.96
2023-03-06T14:51:21.308Z,29.22
2023-03-06T14:53:52.239Z,30.09
2023-03-06T14:56:26.489Z,29.70
2023-03-06T14:59:06.517Z,30.21
2023-03-06T15:01:41.241Z,29.37
2023-03-06T15:04:29.299Z,28.73
2023-03-06T15:06:59.430Z,28.67
2023-03-06T15:09:33.463Z,29.05
2023-03-06T15:12:30.045Z,29.04
2023-03-06T15:15:10.712Z,29.50
2023-03-06T15:17:42.674Z,29.30
2023-03-06T15:20:36.129Z,29.31
2023-03-06T15:23:16.389Z,29.06
2023-03-06T15:25:55.934Z,29.56
2023-03-06T15:28:38.968Z,29.95
2023-03-06T15:31:22.029Z,30.60
2023-03-06T15:34:25.579Z,30.95
2023-03-06T15:36:56.757Z,31.17
2023-03-06T15:39:37.321Z,31.83
2023-03-06T15:42:15.620Z,32.49
2023-03-06T15:44:49.505Z,32.68
2023-03-06T15:47:18.592Z,32.68
2023-03-06T15:49:52.205Z,33.15
2023-03-06T15:52:22.292Z,33.99
2023-03-06T15:54:51.111Z,34.90
2023-03-06T15:57:24.514Z,37.48
2023-03-06T15:59:54.660Z,38.21
2023-03-06T16:02:24.859Z,39.47
2023-03-06T16:04:53.901Z,39.61
2023-03-06T16:07:22.534Z,41.90
2023-03-06T16:09:51.823Z,42.08
2023-03-06T16:12:22.468Z,39.72
2023-03-06T16:14:50.964Z,42.15
2023-03-06T16:17:19.627Z,44.81
2023-03-06T16:19:48.276Z,46.75
2023-03-06T16:22:17.091Z,47.99
2023-03-06T16:24:47.113Z,49.70
2023-03-06T16:27:23.574Z,49.92
2023-03-06T16:29:53.494Z,50.66
2023-03-06T16:32:28.355Z,50.62
2023-03-06T16:34:57.524Z,50.09
2023-03-06T16:37:26.208Z,50.91
2023-03-06T16:39:54.888Z,52.33
2023-03-06T16:42:23.777Z,52.55
2023-03-06T16:44:53.586Z,53.24
2023-03-06T16:47:22.994Z,53.07
2023-03-06T16:49:56.212Z,54.15
2023-03-06T16:52:24.867Z,53.11
2023-03-06T16:54:54.475Z,54.91
2023-03-06T16:57:23.060Z,55.42
2023-03-06T16:59:51.844Z,55.49
2023-03-06T17:02:20.563Z,55.41
2023-03-06T17:04:49.444Z,54.15
2023-03-06T17:07:18.108Z,52.47
2023-03-06T17:09:46.892Z,52.87
2023-03-06T17:12:15.579Z,54.57
2023-03-06T17:14:44.174Z,55.88
2023-03-06T17:17:12.815Z,55.93
2023-03-06T17:19:41.636Z,56.69
2023-03-06T17:22:10.241Z,55.79
2023-03-06T17:24:40.749Z,58.61
2023-03-06T17:27:09.846Z,58.47
2023-03-06T17:29:38.733Z,59.02
2023-03-06T17:32:07.757Z,59.83
2023-03-06T17:34:36.426Z,59.53
2023-03-06T17:37:05.654Z,60.29
2023-03-06T17:39:36.987Z,60.63
2023-03-06T17:42:06.846Z,57.37
2023-03-06T17:44:36.175Z,60.29
2023-03-06T17:47:05.473Z,61.01
2023-03-06T17:49:34.174Z,60.05
2023-03-06T17:52:05.332Z,60.31
2023-03-06T17:54:34.703Z,60.54
2023-03-06T17:57:05.548Z,60.56
2023-03-06T17:59:34.780Z,61.70
2023-03-06T18:02:03.788Z,59.80
2023-03-06T18:04:32.659Z,61.01
2023-03-06T18:07:01.507Z,58.06
2023-03-06T18:09:30.276Z,57.78
2023-03-06T18:11:59.802Z,59.06
2023-03-06T18:14:28.482Z,58.55
2023-03-06T18:16:57.479Z,58.59
2023-03-06T18:19:26.060Z,58.12
2023-03-06T18:21:54.953Z,59.15
2023-03-06T18:24:23.842Z,60.03
2023-03-06T18:26:52.735Z,58.94
2023-03-06T18:29:21.319Z,59.25
2023-03-06T18:31:50.759Z,61.55
2023-03-06T18:34:19.300Z,61.80
2023-03-06T18:36:48.604Z,62.59
2023-03-06T18:39:17.492Z,61.79
2023-03-06T18:41:45.973Z,61.75
2023-03-06T18:44:16.573Z,60.99
2023-03-06T18:46:45.520Z,59.65
2023-03-06T18:49:15.511Z,61.48
2023-03-06T18:51:44.004Z,61.20
2023-03-06T18:54:14.011Z,61.55
2023-03-06T18:56:44.460Z,61.72
2023-03-06T18:59:18.526Z,60.02
2023-03-06T19:01:49.587Z,61.43
2023-03-06T19:04:18.217Z,61.71
2023-03-06T19:06:46.863Z,76.83
2023-03-06T19:09:15.549Z,65.44
2023-03-06T19:11:47.103Z,63.15
2023-03-06T19:14:16.619Z,62.95
2023-03-06T19:16:45.217Z,65.77
2023-03-06T19:19:13.877Z,69.76
2023-03-06T19:21:42.560Z,64.72
2023-03-06T19:24:14.530Z,63.09
2023-03-06T19:26:43.525Z,62.71
2023-03-06T19:29:12.102Z,62.38
2023-03-06T19:31:41.670Z,61.49
2023-03-06T19:34:10.806Z,61.81
2023-03-06T19:36:41.045Z,61.54
2023-03-06T19:39:11.145Z,62.07
2023-03-06T19:41:39.620Z,61.21
2023-03-06T19:44:08.207Z,61.09
2023-03-06T19:46:37.006Z,61.32
2023-03-06T19:49:12.032Z,60.71
2023-03-06T19:51:40.511Z,60.40
2023-03-06T19:54:14.420Z,61.61
2023-03-06T19:56:43.017Z,61.40
2023-03-06T19:59:11.694Z,60.61
2023-03-06T20:01:40.874Z,60.72
2023-03-06T20:04:09.631Z,60.96
2023-03-06T20:06:39.288Z,62.21
2023-03-06T20:09:09.401Z,61.01
2023-03-06T20:11:38.930Z,61.75
2023-03-06T20:14:09.260Z,61.38
2023-03-06T20:16:38.428Z,61.68
2023-03-06T20:19:08.960Z,60.60
2023-03-06T20:21:38.760Z,61.33
2023-03-06T20:24:09.019Z,60.89
2023-03-06T20:26:38.790Z,60.35
2023-03-06T20:29:07.632Z,60.44
2023-03-06T20:31:36.985Z,60.36
2023-03-06T20:34:05.764Z,60.08
2023-03-06T20:36:39.519Z,60.71
2023-03-06T20:39:12.166Z,60.69
2023-03-06T20:41:41.347Z,60.62
2023-03-06T20:44:14.119Z,60.04
2023-03-06T20:46:43.061Z,60.11
2023-03-06T20:49:13.279Z,59.94
2023-03-06T20:51:42.659Z,59.46
2023-03-06T20:54:13.806Z,59.92
2023-03-06T20:56:46.280Z,59.70
2023-03-06T20:59:15.976Z,58.94
2023-03-06T21:01:46.399Z,59.46
2023-03-06T21:04:16.126Z,59.83
2023-03-06T21:06:47.134Z,59.77
2023-03-06T21:09:17.645Z,59.30
2023-03-06T21:11:46.378Z,59.39
2023-03-06T21:14:15.932Z,58.84
2023-03-06T21:16:45.474Z,58.82
2023-03-06T21:19:14.472Z,58.88
2023-03-06T21:21:43.257Z,58.75
2023-03-06T21:24:12.263Z,58.60
2023-03-06T21:26:41.046Z,58.29
2023-03-06T21:29:10.237Z,58.23
2023-03-06T21:31:39.310Z,57.91
2023-03-06T21:34:08.528Z,57.62
2023-03-06T21:36:37.423Z,58.64
2023-03-06T21:39:06.574Z,58.58
2023-03-06T21:41:35.319Z,58.91
2023-03-06T21:44:06.293Z,59.93
2023-03-06T21:46:36.225Z,59.52
2023-03-06T21:49:05.984Z,59.08
2023-03-06T21:51:35.998Z,58.93
2023-03-06T21:54:06.829Z,59.46
2023-03-06T21:56:36.036Z,58.98
2023-03-06T21:59:04.714Z,58.95
2023-03-06T22:01:33.494Z,58.69
2023-03-06T22:04:02.581Z,58.67
2023-03-06T22:06:32.443Z,58.80
2023-03-06T22:09:02.026Z,58.60
2023-03-06T22:11:31.815Z,58.34
2023-03-06T22:14:01.543Z,58.45
2023-03-06T22:16:32.034Z,58.18
2023-03-06T22:19:01.857Z,57.60
2023-03-06T22:21:31.822Z,57.29
2023-03-06T22:24:00.690Z,56.78
2023-03-06T22:26:31.479Z,56.80
2023-03-06T22:29:00.720Z,56.82
2023-03-06T22:31:29.848Z,56.94
2023-03-06T22:34:01.189Z,56.74
2023-03-06T22:36:31.397Z,57.00
2023-03-06T22:39:02.307Z,57.86
2023-03-06T22:41:31.553Z,57.16
2023-03-06T22:44:02.348Z,56.64
2023-03-06T22:46:32.961Z,56.46
2023-03-06T22:49:03.311Z,57.78
2023-03-06T22:51:32.614Z,58.42
2023-03-06T22:54:02.119Z,58.80
2023-03-06T22:56:31.834Z,58.19
2023-03-06T22:59:01.278Z,58.20
2023-03-06T23:01:33.987Z,57.49
2023-03-06T23:04:05.462Z,56.75
2023-03-06T23:06:37.368Z,55.69
2023-03-06T23:09:15.116Z,56.94
2023-03-06T23:12:04.424Z,57.22
2023-03-06T23:14:52.376Z,56.71
2023-03-06T23:17:42.096Z,56.82
2023-03-06T23:20:30.036Z,58.14
2023-03-06T23:23:19.034Z,58.83
2023-03-06T23:25:49.322Z,58.57
2023-03-06T23:28:20.848Z,58.03
2023-03-06T23:30:50.090Z,57.19
2023-03-06T23:33:19.410Z,57.07
2023-03-06T23:35:50.637Z,57.42
2023-03-06T23:38:21.883Z,58.60
2023-03-06T23:40:51.877Z,59.27
2023-03-06T23:43:20.923Z,59.67
2023-03-06T23:45:55.255Z,61.93
2023-03-06T23:48:25.203Z,60.40
2023-03-06T23:50:54.498Z,59.75
2023-03-06T23:53:24.779Z,60.19
2023-03-06T23:55:54.873Z,60.84
2023-03-06T23:58:26.226Z,60.78
